Terminal Aerodrome Forecast
Issued by NWS

Home | Current Version | Previous Version | Text Only | Print | Product List | Glossary On
Versions: 1 2 3 4 5 6 7 8 9 10 11 12 13
708
FTUS46 KHNX 240524
TAFMER
TAF
KMER 240524Z 2406/2506 34005KT P6SM SCT120 BKN200
     FM242000 30009KT P6SM BKN050=

USA.gov is the U.S. government's official web portal to all federal, state and local government web resources and services.